PWSweather.com
Personal Weather Stations
Station Observations
KWIPARKF
Flambeau River State Forest, Park Falls, WI 54552

Flambeau River State ForestPark Falls, WI 54552

Lat: 45.81943, Lon: -90.61676

Elevation: 1476

Station Type: Davis Vantage Pro2 Plus

www.flambeauforestweather.com

High Low Average
Temperature 12.4°F-10.9°C -5.7°F-20.9°C 2.3°F-16.5°C
Dew Point 1.9°F-16.7°C -9.3°F-22.9°C -3.7°F-19.8°C
Winds Calm Calm Calm Calm Calm SSWCalm SSW
Wind Gusts -- -- --
Humidity 89% 60% 76%
Pressure 30.52 in1033.5 mb 30.39 in1029.1 mb -
Precipitation 0.00 in0.0 mm - -
Hour Temp Dew Point Humidity Winds Wind Gusts Pressure Precip Precip Rate Daily Precip Total
12:00 AM 3.6°F-15.8°C -2.0°F-18.9°C 77% Calm Calm -- 30.52 in1033.5 mb - 0.00 in0.0 mm 0.00 in0.0 mm
12:10 AM 3.6°F-15.8°C -2.0°F-18.9°C 77% Calm Calm -- 30.51 in1033.2 mb - 0.00 in0.0 mm 0.00 in0.0 mm
12:20 AM 3.4°F-15.9°C -2.2°F-19.0°C 77% Calm Calm -- 30.52 in1033.5 mb - 0.00 in0.0 mm 0.00 in0.0 mm
12:30 AM 3.2°F-16.0°C -2.4°F-19.1°C 77% Calm Calm -- 30.51 in1033.2 mb - 0.00 in0.0 mm 0.00 in0.0 mm
12:40 AM 3.0°F-16.1°C -2.6°F-19.2°C 77% Calm Calm -- 30.51 in1033.2 mb - 0.00 in0.0 mm 0.00 in0.0 mm
12:50 AM 2.7°F-16.3°C -2.6°F-19.2°C 78% Calm Calm -- 30.51 in1033.2 mb - 0.00 in0.0 mm 0.00 in0.0 mm
01:00 AM 2.5°F-16.4°C -2.8°F-19.3°C 78% Calm Calm -- 30.51 in1033.2 mb - 0.00 in0.0 mm 0.00 in0.0 mm
01:10 AM 2.2°F-16.6°C -3.1°F-19.5°C 78% Calm Calm -- 30.51 in1033.2 mb - 0.00 in0.0 mm 0.00 in0.0 mm
01:20 AM 1.9°F-16.7°C -3.1°F-19.5°C 79% Calm Calm -- 30.51 in1033.2 mb - 0.00 in0.0 mm 0.00 in0.0 mm
01:30 AM 1.7°F-16.8°C -3.3°F-19.6°C 79% Calm Calm -- 30.51 in1033.2 mb - 0.00 in0.0 mm 0.00 in0.0 mm
01:40 AM 1.6°F-16.9°C -3.1°F-19.5°C 80% Calm Calm -- 30.52 in1033.5 mb - 0.00 in0.0 mm 0.00 in0.0 mm
01:50 AM 1.7°F-16.8°C -3.0°F-19.4°C 80% Calm Calm -- 30.51 in1033.2 mb - 0.00 in0.0 mm 0.00 in0.0 mm
02:00 AM 1.7°F-16.8°C -3.0°F-19.4°C 80% Calm Calm -- 30.51 in1033.2 mb - 0.00 in0.0 mm 0.00 in0.0 mm
02:10 AM 1.7°F-16.8°C -3.0°F-19.4°C 80% Calm Calm -- 30.52 in1033.5 mb - 0.00 in0.0 mm 0.00 in0.0 mm
02:20 AM 1.6°F-16.9°C -3.4°F-19.7°C 79% Calm Calm -- 30.51 in1033.2 mb - 0.00 in0.0 mm 0.00 in0.0 mm
02:30 AM 1.6°F-16.9°C -3.2°F-19.6°C 80% Calm Calm -- 30.51 in1033.2 mb - 0.00 in0.0 mm 0.00 in0.0 mm
02:40 AM 1.4°F-17.0°C -3.3°F-19.6°C 80% Calm Calm -- 30.51 in1033.2 mb - 0.00 in0.0 mm 0.00 in0.0 mm
02:50 AM 1.2°F-17.1°C -3.5°F-19.7°C 80% Calm Calm -- 30.51 in1033.2 mb - 0.00 in0.0 mm 0.00 in0.0 mm
03:00 AM 1.0°F-17.2°C -3.7°F-19.8°C 80% Calm Calm -- 30.51 in1033.2 mb - 0.00 in0.0 mm 0.00 in0.0 mm
03:10 AM 0.9°F-17.3°C -3.8°F-19.9°C 80% Calm Calm -- 30.51 in1033.2 mb - 0.00 in0.0 mm 0.00 in0.0 mm
03:20 AM 0.8°F-17.3°C -3.7°F-19.8°C 81% Calm Calm -- 30.50 in1032.8 mb - 0.00 in0.0 mm 0.00 in0.0 mm
03:30 AM 0.7°F-17.4°C -3.8°F-19.9°C 81% Calm Calm -- 30.50 in1032.8 mb - 0.00 in0.0 mm 0.00 in0.0 mm
03:40 AM 0.5°F-17.5°C -4.0°F-20.0°C 81% Calm Calm -- 30.50 in1032.8 mb - 0.00 in0.0 mm 0.00 in0.0 mm
03:50 AM 0.4°F-17.6°C -4.1°F-20.1°C 81% Calm Calm -- 30.49 in1032.5 mb - 0.00 in0.0 mm 0.00 in0.0 mm
04:00 AM 0.3°F-17.6°C -4.2°F-20.1°C 81% Calm Calm -- 30.49 in1032.5 mb - 0.00 in0.0 mm 0.00 in0.0 mm
04:10 AM 0.1°F-17.7°C -4.3°F-20.2°C 81% Calm Calm -- 30.49 in1032.5 mb - 0.00 in0.0 mm 0.00 in0.0 mm
04:20 AM -0.2°F-17.9°C -4.6°F-20.3°C 81% Calm Calm -- 30.49 in1032.5 mb - 0.00 in0.0 mm 0.00 in0.0 mm
04:30 AM -0.5°F-18.1°C -4.9°F-20.5°C 81% Calm Calm -- 30.49 in1032.5 mb - 0.00 in0.0 mm 0.00 in0.0 mm
04:40 AM -0.8°F-18.2°C -5.2°F-20.7°C 81% Calm Calm -- 30.49 in1032.5 mb - 0.00 in0.0 mm 0.00 in0.0 mm
04:50 AM -1.2°F-18.4°C -5.6°F-20.9°C 81% Calm Calm -- 30.48 in1032.2 mb - 0.00 in0.0 mm 0.00 in0.0 mm
05:00 AM -1.6°F-18.7°C -6.0°F-21.1°C 81% Calm Calm -- 30.48 in1032.2 mb - 0.00 in0.0 mm 0.00 in0.0 mm
05:10 AM -2.0°F-18.9°C -6.2°F-21.2°C 82% Calm Calm -- 30.49 in1032.5 mb - 0.00 in0.0 mm 0.00 in0.0 mm
05:20 AM -2.4°F-19.1°C -6.5°F-21.4°C 82% Calm Calm -- 30.48 in1032.2 mb - 0.00 in0.0 mm 0.00 in0.0 mm
05:30 AM -2.7°F-19.3°C -6.8°F-21.6°C 82% Calm Calm -- 30.48 in1032.2 mb - 0.00 in0.0 mm 0.00 in0.0 mm
05:40 AM -3.1°F-19.5°C -7.0°F-21.7°C 83% Calm Calm -- 30.49 in1032.5 mb - 0.00 in0.0 mm 0.00 in0.0 mm
05:50 AM -3.4°F-19.7°C -7.5°F-21.9°C 82% Calm Calm -- 30.49 in1032.5 mb - 0.00 in0.0 mm 0.00 in0.0 mm
06:00 AM -3.7°F-19.8°C -7.6°F-22.0°C 83% Calm Calm -- 30.49 in1032.5 mb - 0.00 in0.0 mm 0.00 in0.0 mm
06:10 AM -4.1°F-20.1°C -8.0°F-22.2°C 83% Calm Calm -- 30.49 in1032.5 mb - 0.00 in0.0 mm 0.00 in0.0 mm
06:20 AM -4.4°F-20.2°C -8.2°F-22.3°C 83% Calm Calm -- 30.49 in1032.5 mb - 0.00 in0.0 mm 0.00 in0.0 mm
06:30 AM -4.5°F-20.3°C -8.1°F-22.3°C 84% Calm Calm -- 30.48 in1032.2 mb - 0.00 in0.0 mm 0.00 in0.0 mm
06:40 AM -4.7°F-20.4°C -8.3°F-22.4°C 84% Calm Calm -- 30.49 in1032.5 mb - 0.00 in0.0 mm 0.00 in0.0 mm
06:50 AM -4.9°F-20.5°C -8.5°F-22.5°C 84% Calm Calm -- 30.49 in1032.5 mb - 0.00 in0.0 mm 0.00 in0.0 mm
07:00 AM -5.2°F-20.7°C -9.0°F-22.8°C 83% Calm Calm -- 30.48 in1032.2 mb - 0.00 in0.0 mm 0.00 in0.0 mm
07:10 AM -5.4°F-20.8°C -9.2°F-22.9°C 83% Calm Calm -- 30.48 in1032.2 mb - 0.00 in0.0 mm 0.00 in0.0 mm
07:20 AM -5.6°F-20.9°C -9.2°F-22.9°C 84% Calm Calm -- 30.49 in1032.5 mb - 0.00 in0.0 mm 0.00 in0.0 mm
07:30 AM -5.7°F-20.9°C -9.3°F-22.9°C 84% Calm Calm -- 30.50 in1032.8 mb - 0.00 in0.0 mm 0.00 in0.0 mm
07:40 AM -5.7°F-20.9°C -9.0°F-22.8°C 85% Calm Calm -- 30.49 in1032.5 mb - 0.00 in0.0 mm 0.00 in0.0 mm
07:50 AM -5.7°F-20.9°C -9.0°F-22.8°C 85% Calm Calm -- 30.50 in1032.8 mb - 0.00 in0.0 mm 0.00 in0.0 mm
08:00 AM -5.7°F-20.9°C -8.8°F-22.7°C 86% Calm Calm -- 30.49 in1032.5 mb - 0.00 in0.0 mm 0.00 in0.0 mm
08:10 AM -5.7°F-20.9°C -8.8°F-22.7°C 86% Calm Calm -- 30.49 in1032.5 mb - 0.00 in0.0 mm 0.00 in0.0 mm
08:20 AM -5.6°F-20.9°C -8.7°F-22.6°C 86% Calm Calm -- 30.49 in1032.5 mb - 0.00 in0.0 mm 0.00 in0.0 mm
08:30 AM -5.5°F-20.8°C -8.6°F-22.6°C 86% Calm Calm -- 30.49 in1032.5 mb - 0.00 in0.0 mm 0.00 in0.0 mm
08:40 AM -5.2°F-20.7°C -8.1°F-22.3°C 87% Calm Calm -- 30.49 in1032.5 mb - 0.00 in0.0 mm 0.00 in0.0 mm
08:50 AM -4.8°F-20.4°C -7.7°F-22.1°C 87% Calm Calm -- 30.49 in1032.5 mb - 0.00 in0.0 mm 0.00 in0.0 mm
09:00 AM -4.3°F-20.2°C -7.2°F-21.8°C 87% Calm Calm -- 30.48 in1032.2 mb - 0.00 in0.0 mm 0.00 in0.0 mm
09:10 AM -3.7°F-19.8°C -6.3°F-21.3°C 88% Calm Calm -- 30.49 in1032.5 mb - 0.00 in0.0 mm 0.00 in0.0 mm
09:20 AM -2.9°F-19.4°C -5.3°F-20.7°C 89% Calm Calm -- 30.49 in1032.5 mb - 0.00 in0.0 mm 0.00 in0.0 mm
09:30 AM -2.2°F-19.0°C -4.7°F-20.4°C 89% Calm Calm -- 30.48 in1032.2 mb - 0.00 in0.0 mm 0.00 in0.0 mm
09:40 AM -0.9°F-18.3°C -3.4°F-19.7°C 89% Calm Calm -- 30.48 in1032.2 mb - 0.00 in0.0 mm 0.00 in0.0 mm
09:50 AM -0.1°F-17.8°C -2.8°F-19.3°C 88% Calm Calm -- 30.47 in1031.8 mb - 0.00 in0.0 mm 0.00 in0.0 mm
10:00 AM 1.0°F-17.2°C -1.8°F-18.8°C 88% Calm Calm -- 30.48 in1032.2 mb - 0.00 in0.0 mm 0.00 in0.0 mm
10:10 AM 2.4°F-16.4°C -1.3°F-18.5°C 84% Calm Calm -- 30.48 in1032.2 mb - 0.00 in0.0 mm 0.00 in0.0 mm
10:20 AM 3.3°F-15.9°C -0.7°F-18.2°C 83% Calm Calm -- 30.47 in1031.8 mb - 0.00 in0.0 mm 0.00 in0.0 mm
10:30 AM 4.6°F-15.2°C -0.2°F-17.9°C 80% Calm Calm -- 30.47 in1031.8 mb - 0.00 in0.0 mm 0.00 in0.0 mm
10:40 AM 5.3°F-14.8°C 0.2°F-17.7°C 79% Calm Calm -- 30.47 in1031.8 mb - 0.00 in0.0 mm 0.00 in0.0 mm
10:50 AM 6.2°F-14.3°C 0.3°F-17.6°C 76% Calm Calm -- 30.47 in1031.8 mb - 0.00 in0.0 mm 0.00 in0.0 mm
11:00 AM 7.1°F-13.8°C 0.8°F-17.3°C 75% Calm Calm -- 30.46 in1031.5 mb - 0.00 in0.0 mm 0.00 in0.0 mm
11:10 AM 7.7°F-13.5°C 0.8°F-17.3°C 73% Calm Calm -- 30.46 in1031.5 mb - 0.00 in0.0 mm 0.00 in0.0 mm
11:20 AM 8.4°F-13.1°C 0.9°F-17.3°C 71% Calm Calm -- 30.45 in1031.2 mb - 0.00 in0.0 mm 0.00 in0.0 mm
11:30 AM 8.6°F-13.0°C 0.8°F-17.3°C 70% Calm Calm -- 30.44 in1030.8 mb - 0.00 in0.0 mm 0.00 in0.0 mm
11:40 AM 9.0°F-12.8°C 1.2°F-17.1°C 70% Calm Calm -- 30.44 in1030.8 mb - 0.00 in0.0 mm 0.00 in0.0 mm
11:50 AM 9.2°F-12.7°C 0.8°F-17.3°C 68% Calm Calm -- 30.45 in1031.2 mb - 0.00 in0.0 mm 0.00 in0.0 mm
12:00 PM 9.8°F-12.3°C 1.0°F-17.2°C 67% Calm Calm -- 30.45 in1031.2 mb - 0.00 in0.0 mm 0.00 in0.0 mm
12:10 PM 10.1°F-12.2°C 0.7°F-17.4°C 65% Calm Calm -- 30.44 in1030.8 mb - 0.00 in0.0 mm 0.00 in0.0 mm
12:20 PM 9.8°F-12.3°C 0.7°F-17.4°C 66% Calm Calm -- 30.43 in1030.5 mb - 0.00 in0.0 mm 0.00 in0.0 mm
12:30 PM 10.0°F-12.2°C 0.6°F-17.4°C 65% Calm Calm -- 30.43 in1030.5 mb - 0.00 in0.0 mm 0.00 in0.0 mm
12:40 PM 11.2°F-11.6°C 1.4°F-17.0°C 64% Calm Calm -- 30.43 in1030.5 mb - 0.00 in0.0 mm 0.00 in0.0 mm
12:50 PM 10.9°F-11.7°C 0.8°F-17.3°C 63% Calm Calm -- 30.43 in1030.5 mb - 0.00 in0.0 mm 0.00 in0.0 mm
01:00 PM 11.2°F-11.6°C 1.4°F-17.0°C 64% Calm Calm -- 30.42 in1030.1 mb - 0.00 in0.0 mm 0.00 in0.0 mm
01:10 PM 11.7°F-11.3°C 1.9°F-16.7°C 64% Calm Calm -- 30.42 in1030.1 mb - 0.00 in0.0 mm 0.00 in0.0 mm
01:20 PM 11.1°F-11.6°C 0.6°F-17.4°C 62% Calm Calm -- 30.42 in1030.1 mb - 0.00 in0.0 mm 0.00 in0.0 mm
01:30 PM 12.2°F-11.0°C 1.7°F-16.8°C 62% Calm Calm -- 30.41 in1029.8 mb - 0.00 in0.0 mm 0.00 in0.0 mm
01:40 PM 11.9°F-11.2°C 1.0°F-17.2°C 61% Calm Calm -- 30.41 in1029.8 mb - 0.00 in0.0 mm 0.00 in0.0 mm
01:50 PM 12.2°F-11.0°C 1.3°F-17.1°C 61% Calm Calm -- 30.41 in1029.8 mb - 0.00 in0.0 mm 0.00 in0.0 mm
02:00 PM 12.2°F-11.0°C 1.7°F-16.8°C 62% Calm Calm -- 30.40 in1029.5 mb - 0.00 in0.0 mm 0.00 in0.0 mm
02:10 PM 12.1°F-11.1°C 1.2°F-17.1°C 61% Calm Calm -- 30.41 in1029.8 mb - 0.00 in0.0 mm 0.00 in0.0 mm
02:20 PM 12.3°F-10.9°C 1.0°F-17.2°C 60% Calm Calm -- 30.41 in1029.8 mb - 0.00 in0.0 mm 0.00 in0.0 mm
02:30 PM 12.4°F-10.9°C 1.1°F-17.2°C 60% Calm Calm -- 30.41 in1029.8 mb - 0.00 in0.0 mm 0.00 in0.0 mm
02:40 PM 11.6°F-11.3°C 0.7°F-17.4°C 61% Calm Calm -- 30.41 in1029.8 mb - 0.00 in0.0 mm 0.00 in0.0 mm
02:50 PM 12.3°F-10.9°C 1.8°F-16.8°C 62% Calm Calm -- 30.41 in1029.8 mb - 0.00 in0.0 mm 0.00 in0.0 mm
03:00 PM 11.3°F-11.5°C 0.8°F-17.3°C 62% Calm Calm -- 30.41 in1029.8 mb - 0.00 in0.0 mm 0.00 in0.0 mm
03:10 PM 11.4°F-11.4°C 0.9°F-17.3°C 62% Calm Calm -- 30.40 in1029.5 mb - 0.00 in0.0 mm 0.00 in0.0 mm
03:20 PM 11.1°F-11.6°C 1.3°F-17.1°C 64% Calm Calm -- 30.41 in1029.8 mb - 0.00 in0.0 mm 0.00 in0.0 mm
03:30 PM 10.9°F-11.7°C 1.1°F-17.2°C 64% Calm Calm -- 30.41 in1029.8 mb - 0.00 in0.0 mm 0.00 in0.0 mm
03:40 PM 10.4°F-12.0°C 1.0°F-17.2°C 65% Calm Calm -- 30.40 in1029.5 mb - 0.00 in0.0 mm 0.00 in0.0 mm
03:50 PM 9.9°F-12.3°C 0.5°F-17.5°C 65% Calm Calm -- 30.40 in1029.5 mb - 0.00 in0.0 mm 0.00 in0.0 mm
04:00 PM 9.9°F-12.3°C 0.8°F-17.3°C 66% Calm Calm -- 30.40 in1029.5 mb - 0.00 in0.0 mm 0.00 in0.0 mm
04:10 PM 9.0°F-12.8°C -0.1°F-17.8°C 66% Calm Calm -- 30.40 in1029.5 mb - 0.00 in0.0 mm 0.00 in0.0 mm
04:20 PM 8.8°F-12.9°C 0.4°F-17.6°C 68% Calm Calm -- 30.41 in1029.8 mb - 0.00 in0.0 mm 0.00 in0.0 mm
04:30 PM 8.7°F-12.9°C 0.3°F-17.6°C 68% Calm Calm -- 30.41 in1029.8 mb - 0.00 in0.0 mm 0.00 in0.0 mm
04:40 PM 8.3°F-13.2°C 0.2°F-17.7°C 69% Calm Calm -- 30.40 in1029.5 mb - 0.00 in0.0 mm 0.00 in0.0 mm
04:50 PM 7.8°F-13.4°C 0.0°F-17.8°C 70% Calm Calm -- 30.40 in1029.5 mb - 0.00 in0.0 mm 0.00 in0.0 mm
05:00 PM 7.3°F-13.7°C -0.5°F-18.1°C 70% Calm Calm -- 30.39 in1029.1 mb - 0.00 in0.0 mm 0.00 in0.0 mm
05:10 PM 6.8°F-14.0°C -0.6°F-18.1°C 71% Calm Calm -- 30.39 in1029.1 mb - 0.00 in0.0 mm 0.00 in0.0 mm
05:20 PM 6.5°F-14.2°C -0.6°F-18.1°C 72% Calm Calm -- 30.40 in1029.5 mb - 0.00 in0.0 mm 0.00 in0.0 mm
05:30 PM 6.5°F-14.2°C -0.6°F-18.1°C 72% Calm Calm -- 30.40 in1029.5 mb - 0.00 in0.0 mm 0.00 in0.0 mm
05:40 PM 6.2°F-14.3°C -0.9°F-18.3°C 72% Calm Calm -- 30.41 in1029.8 mb - 0.00 in0.0 mm 0.00 in0.0 mm
05:50 PM 5.9°F-14.5°C -1.2°F-18.4°C 72% Calm Calm -- 30.41 in1029.8 mb - 0.00 in0.0 mm 0.00 in0.0 mm
06:00 PM 5.6°F-14.7°C -1.5°F-18.6°C 72% Calm Calm -- 30.41 in1029.8 mb - 0.00 in0.0 mm 0.00 in0.0 mm
06:10 PM 5.3°F-14.8°C -1.5°F-18.6°C 73% Calm Calm -- 30.41 in1029.8 mb - 0.00 in0.0 mm 0.00 in0.0 mm
06:20 PM 4.7°F-15.2°C -1.8°F-18.8°C 74% Calm Calm -- 30.40 in1029.5 mb - 0.00 in0.0 mm 0.00 in0.0 mm
06:30 PM 4.3°F-15.4°C -1.9°F-18.8°C 75% Calm Calm -- 30.40 in1029.5 mb - 0.00 in0.0 mm 0.00 in0.0 mm
06:40 PM 3.9°F-15.6°C -2.0°F-18.9°C 76% Calm Calm -- 30.40 in1029.5 mb - 0.00 in0.0 mm 0.00 in0.0 mm
06:50 PM 3.6°F-15.8°C -2.3°F-19.1°C 76% Calm Calm -- 30.40 in1029.5 mb - 0.00 in0.0 mm 0.00 in0.0 mm
07:00 PM 3.1°F-16.1°C -2.8°F-19.3°C 76% Calm Calm -- 30.41 in1029.8 mb - 0.00 in0.0 mm 0.00 in0.0 mm
07:10 PM 2.5°F-16.4°C -2.8°F-19.3°C 78% Calm Calm -- 30.41 in1029.8 mb - 0.00 in0.0 mm 0.00 in0.0 mm
07:20 PM 2.4°F-16.4°C -2.9°F-19.4°C 78% Calm Calm -- 30.41 in1029.8 mb - 0.00 in0.0 mm 0.00 in0.0 mm
07:30 PM 2.4°F-16.4°C -3.2°F-19.6°C 77% Calm Calm -- 30.42 in1030.1 mb - 0.00 in0.0 mm 0.00 in0.0 mm
07:40 PM 2.0°F-16.7°C -5.2°F-20.7°C 71% Calm Calm -- 30.42 in1030.1 mb - 0.00 in0.0 mm 0.00 in0.0 mm
07:50 PM 1.7°F-16.8°C -5.8°F-21.0°C 70% Calm Calm -- 30.42 in1030.1 mb - 0.00 in0.0 mm 0.00 in0.0 mm
08:00 PM 1.1°F-17.2°C -6.7°F-21.5°C 69% Calm Calm -- 30.43 in1030.5 mb - 0.00 in0.0 mm 0.00 in0.0 mm
08:10 PM 0.7°F-17.4°C -6.8°F-21.6°C 70% Calm Calm -- 30.43 in1030.5 mb - 0.00 in0.0 mm 0.00 in0.0 mm
08:20 PM 0.4°F-17.6°C -7.1°F-21.7°C 70% Calm Calm -- 30.44 in1030.8 mb - 0.00 in0.0 mm 0.00 in0.0 mm
08:30 PM 0.0°F-17.8°C -7.2°F-21.8°C 71% Calm Calm -- 30.43 in1030.5 mb - 0.00 in0.0 mm 0.00 in0.0 mm
08:40 PM -0.4°F-18.0°C -7.6°F-22.0°C 71% Calm Calm -- 30.43 in1030.5 mb - 0.00 in0.0 mm 0.00 in0.0 mm
08:50 PM -0.7°F-18.2°C -7.6°F-22.0°C 72% Calm Calm -- 30.44 in1030.8 mb - 0.00 in0.0 mm 0.00 in0.0 mm
09:00 PM -1.0°F-18.3°C -7.9°F-22.2°C 72% Calm Calm -- 30.43 in1030.5 mb - 0.00 in0.0 mm 0.00 in0.0 mm
09:10 PM -1.3°F-18.5°C -8.2°F-22.3°C 72% Calm Calm -- 30.43 in1030.5 mb - 0.00 in0.0 mm 0.00 in0.0 mm
09:20 PM -1.6°F-18.7°C -8.2°F-22.3°C 73% Calm Calm -- 30.43 in1030.5 mb - 0.00 in0.0 mm 0.00 in0.0 mm
09:30 PM -2.0°F-18.9°C -8.5°F-22.5°C 73% Calm Calm -- 30.42 in1030.1 mb - 0.00 in0.0 mm 0.00 in0.0 mm
09:40 PM -2.3°F-19.1°C -8.6°F-22.6°C 74% Calm Calm -- 30.42 in1030.1 mb - 0.00 in0.0 mm 0.00 in0.0 mm
09:50 PM -2.7°F-19.3°C -8.9°F-22.7°C 74% Calm Calm -- 30.42 in1030.1 mb - 0.00 in0.0 mm 0.00 in0.0 mm
10:00 PM -3.0°F-19.4°C -9.0°F-22.8°C 75% Calm Calm -- 30.42 in1030.1 mb - 0.00 in0.0 mm 0.00 in0.0 mm
10:10 PM -3.3°F-19.6°C -9.0°F-22.8°C 76% Calm Calm -- 30.42 in1030.1 mb - 0.00 in0.0 mm 0.00 in0.0 mm
10:20 PM -3.6°F-19.8°C -9.3°F-22.9°C 76% Calm Calm -- 30.42 in1030.1 mb - 0.00 in0.0 mm 0.00 in0.0 mm
10:30 PM -3.9°F-19.9°C -9.3°F-22.9°C 77% Calm Calm -- 30.42 in1030.1 mb - 0.00 in0.0 mm 0.00 in0.0 mm
10:40 PM -4.1°F-20.1°C -9.2°F-22.9°C 78% Calm Calm -- 30.42 in1030.1 mb - 0.00 in0.0 mm 0.00 in0.0 mm
10:50 PM -4.3°F-20.2°C -9.2°F-22.9°C 79% Calm Calm -- 30.42 in1030.1 mb - 0.00 in0.0 mm 0.00 in0.0 mm
11:00 PM -4.5°F-20.3°C -9.1°F-22.8°C 80% Calm Calm -- 30.43 in1030.5 mb - 0.00 in0.0 mm 0.00 in0.0 mm
11:10 PM -4.6°F-20.3°C -8.9°F-22.7°C 81% Calm Calm -- 30.43 in1030.5 mb - 0.00 in0.0 mm 0.00 in0.0 mm
11:20 PM -4.8°F-20.4°C -9.1°F-22.8°C 81% Calm Calm -- 30.44 in1030.8 mb - 0.00 in0.0 mm 0.00 in0.0 mm
11:30 PM -4.8°F-20.4°C -8.9°F-22.7°C 82% Calm Calm -- 30.45 in1031.2 mb - 0.00 in0.0 mm 0.00 in0.0 mm
11:40 PM -4.9°F-20.5°C -8.7°F-22.6°C 83% Calm Calm -- 30.45 in1031.2 mb - 0.00 in0.0 mm 0.00 in0.0 mm
11:50 PM -4.9°F-20.5°C -8.7°F-22.6°C 83% Calm Calm -- 30.45 in1031.2 mb - 0.00 in0.0 mm 0.00 in0.0 mm